sensor_id;sensor_type;location;lat;lon;timestamp;temperature;humidity
26182;DHT22;13927;51.534;11.866;2023-12-04T00:01:14;-4.70;99.90
26182;DHT22;13927;51.534;11.866;2023-12-04T00:03:41;-4.60;99.90
26182;DHT22;13927;51.534;11.866;2023-12-04T00:06:06;-4.60;99.90
26182;DHT22;13927;51.534;11.866;2023-12-04T00:08:33;-4.60;99.90
26182;DHT22;13927;51.534;11.866;2023-12-04T00:10:58;-4.50;99.90
26182;DHT22;13927;51.534;11.866;2023-12-04T00:13:24;-4.30;99.90
26182;DHT22;13927;51.534;11.866;2023-12-04T00:15:50;-4.30;99.90
26182;DHT22;13927;51.534;11.866;2023-12-04T00:18:16;-4.20;99.90
26182;DHT22;13927;51.534;11.866;2023-12-04T00:20:42;-4.10;99.90
26182;DHT22;13927;51.534;11.866;2023-12-04T00:23:07;-4.00;99.90
26182;DHT22;13927;51.534;11.866;2023-12-04T00:25:33;-4.00;99.90
26182;DHT22;13927;51.534;11.866;2023-12-04T00:27:59;-3.90;99.90
26182;DHT22;13927;51.534;11.866;2023-12-04T00:30:24;-3.80;99.90
26182;DHT22;13927;51.534;11.866;2023-12-04T00:32:50;-3.70;99.90
26182;DHT22;13927;51.534;11.866;2023-12-04T00:35:16;-3.70;99.90
26182;DHT22;13927;51.534;11.866;2023-12-04T00:37:41;-3.60;99.90
26182;DHT22;13927;51.534;11.866;2023-12-04T00:40:07;-3.50;99.90
26182;DHT22;13927;51.534;11.866;2023-12-04T00:42:33;-3.40;99.90
26182;DHT22;13927;51.534;11.866;2023-12-04T00:44:59;-3.40;99.90
26182;DHT22;13927;51.534;11.866;2023-12-04T00:47:25;-3.30;99.90
26182;DHT22;13927;51.534;11.866;2023-12-04T00:49:51;-3.30;99.90
26182;DHT22;13927;51.534;11.866;2023-12-04T00:52:16;-3.20;99.90
26182;DHT22;13927;51.534;11.866;2023-12-04T00:54:42;-3.20;99.90
26182;DHT22;13927;51.534;11.866;2023-12-04T00:57:08;-3.20;99.90
26182;DHT22;13927;51.534;11.866;2023-12-04T00:59:34;-3.10;99.90
26182;DHT22;13927;51.534;11.866;2023-12-04T01:02:00;-3.10;99.90
26182;DHT22;13927;51.534;11.866;2023-12-04T01:04:26;-3.10;99.90
26182;DHT22;13927;51.534;11.866;2023-12-04T01:06:52;-3.00;99.90
26182;DHT22;13927;51.534;11.866;2023-12-04T01:09:18;-3.00;99.90
26182;DHT22;13927;51.534;11.866;2023-12-04T01:11:52;-3.00;99.90
26182;DHT22;13927;51.534;11.866;2023-12-04T01:14:19;-3.00;99.90
26182;DHT22;13927;51.534;11.866;2023-12-04T01:16:45;-3.00;99.90
26182;DHT22;13927;51.534;11.866;2023-12-04T01:19:11;-2.90;99.90
26182;DHT22;13927;51.534;11.866;2023-12-04T01:21:37;-3.00;99.90
26182;DHT22;13927;51.534;11.866;2023-12-04T01:24:03;-2.90;99.90
26182;DHT22;13927;51.534;11.866;2023-12-04T01:26:29;-2.90;99.90
26182;DHT22;13927;51.534;11.866;2023-12-04T01:28:55;-2.90;99.90
26182;DHT22;13927;51.534;11.866;2023-12-04T01:31:21;-2.90;99.90
26182;DHT22;13927;51.534;11.866;2023-12-04T01:33:46;-3.00;99.90
26182;DHT22;13927;51.534;11.866;2023-12-04T01:36:12;-3.00;99.90
26182;DHT22;13927;51.534;11.866;2023-12-04T01:38:38;-2.90;99.90
26182;DHT22;13927;51.534;11.866;2023-12-04T01:41:04;-2.90;99.90
26182;DHT22;13927;51.534;11.866;2023-12-04T01:43:31;-2.90;99.90
26182;DHT22;13927;51.534;11.866;2023-12-04T01:45:57;-2.80;99.90
26182;DHT22;13927;51.534;11.866;2023-12-04T01:48:25;-2.80;99.90
26182;DHT22;13927;51.534;11.866;2023-12-04T01:50:52;-2.80;99.90
26182;DHT22;13927;51.534;11.866;2023-12-04T01:53:18;-2.70;99.90
26182;DHT22;13927;51.534;11.866;2023-12-04T01:55:44;-2.70;99.90
26182;DHT22;13927;51.534;11.866;2023-12-04T01:58:11;-2.70;99.90
26182;DHT22;13927;51.534;11.866;2023-12-04T02:00:37;-2.70;99.90
26182;DHT22;13927;51.534;11.866;2023-12-04T02:03:03;-2.70;99.90
26182;DHT22;13927;51.534;11.866;2023-12-04T02:05:29;-2.60;99.90
26182;DHT22;13927;51.534;11.866;2023-12-04T02:07:56;-2.60;99.90
26182;DHT22;13927;51.534;11.866;2023-12-04T02:10:22;-2.60;99.90
26182;DHT22;13927;51.534;11.866;2023-12-04T02:12:51;-2.60;99.90
26182;DHT22;13927;51.534;11.866;2023-12-04T02:15:17;-2.60;99.90
26182;DHT22;13927;51.534;11.866;2023-12-04T02:17:43;-2.60;99.90
26182;DHT22;13927;51.534;11.866;2023-12-04T02:20:16;-2.60;99.90
26182;DHT22;13927;51.534;11.866;2023-12-04T02:22:43;-2.50;99.90
26182;DHT22;13927;51.534;11.866;2023-12-04T02:25:09;-2.50;99.90
26182;DHT22;13927;51.534;11.866;2023-12-04T02:27:47;-2.50;99.90
26182;DHT22;13927;51.534;11.866;2023-12-04T02:30:17;-2.50;99.90
26182;DHT22;13927;51.534;11.866;2023-12-04T02:32:47;-2.40;99.90
26182;DHT22;13927;51.534;11.866;2023-12-04T02:35:20;-2.50;99.90
26182;DHT22;13927;51.534;11.866;2023-12-04T02:37:47;-2.40;99.90
26182;DHT22;13927;51.534;11.866;2023-12-04T02:40:14;-2.40;99.90
26182;DHT22;13927;51.534;11.866;2023-12-04T02:42:40;-2.40;99.90
26182;DHT22;13927;51.534;11.866;2023-12-04T02:45:07;-2.40;99.90
26182;DHT22;13927;51.534;11.866;2023-12-04T02:47:32;-2.30;99.90
26182;DHT22;13927;51.534;11.866;2023-12-04T02:49:58;-2.30;99.90
26182;DHT22;13927;51.534;11.866;2023-12-04T02:52:24;-2.30;99.90
26182;DHT22;13927;51.534;11.866;2023-12-04T02:54:50;-2.30;99.90
26182;DHT22;13927;51.534;11.866;2023-12-04T02:57:15;-2.20;99.90
26182;DHT22;13927;51.534;11.866;2023-12-04T02:59:41;-2.20;99.90
26182;DHT22;13927;51.534;11.866;2023-12-04T03:02:07;-2.20;99.90
26182;DHT22;13927;51.534;11.866;2023-12-04T03:04:34;-2.10;99.90
26182;DHT22;13927;51.534;11.866;2023-12-04T03:07:00;-2.10;99.90
26182;DHT22;13927;51.534;11.866;2023-12-04T03:09:26;-2.10;99.90
26182;DHT22;13927;51.534;11.866;2023-12-04T03:11:51;-2.00;99.90
26182;DHT22;13927;51.534;11.866;2023-12-04T03:14:17;-2.00;99.90
26182;DHT22;13927;51.534;11.866;2023-12-04T03:16:43;-2.00;99.90
26182;DHT22;13927;51.534;11.866;2023-12-04T03:19:08;-2.00;99.90
26182;DHT22;13927;51.534;11.866;2023-12-04T03:21:34;-2.00;99.90
26182;DHT22;13927;51.534;11.866;2023-12-04T03:24:00;-1.90;99.90
26182;DHT22;13927;51.534;11.866;2023-12-04T03:26:25;-2.00;99.90
26182;DHT22;13927;51.534;11.866;2023-12-04T03:28:51;-1.90;99.90
26182;DHT22;13927;51.534;11.866;2023-12-04T03:31:17;-1.90;99.90
26182;DHT22;13927;51.534;11.866;2023-12-04T03:33:43;-1.90;99.90
26182;DHT22;13927;51.534;11.866;2023-12-04T03:36:08;-1.80;99.90
26182;DHT22;13927;51.534;11.866;2023-12-04T03:38:34;-1.90;99.90
26182;DHT22;13927;51.534;11.866;2023-12-04T03:41:00;-1.80;99.90
26182;DHT22;13927;51.534;11.866;2023-12-04T03:43:25;-1.90;99.90
26182;DHT22;13927;51.534;11.866;2023-12-04T03:45:51;-1.90;99.90
26182;DHT22;13927;51.534;11.866;2023-12-04T03:48:17;-2.00;99.90
26182;DHT22;13927;51.534;11.866;2023-12-04T03:50:42;-2.00;99.90
26182;DHT22;13927;51.534;11.866;2023-12-04T03:53:08;-1.90;99.90
26182;DHT22;13927;51.534;11.866;2023-12-04T03:55:34;-2.00;99.90
26182;DHT22;13927;51.534;11.866;2023-12-04T03:57:59;-2.00;99.90
26182;DHT22;13927;51.534;11.866;2023-12-04T04:00:25;-2.00;99.90
26182;DHT22;13927;51.534;11.866;2023-12-04T04:02:51;-2.00;99.90
26182;DHT22;13927;51.534;11.866;2023-12-04T04:05:16;-2.00;99.90
26182;DHT22;13927;51.534;11.866;2023-12-04T04:07:42;-2.00;99.90
26182;DHT22;13927;51.534;11.866;2023-12-04T04:10:08;-2.00;99.90
26182;DHT22;13927;51.534;11.866;2023-12-04T04:12:34;-2.00;99.90
26182;DHT22;13927;51.534;11.866;2023-12-04T04:15:00;-2.00;99.90
26182;DHT22;13927;51.534;11.866;2023-12-04T04:17:26;-2.00;99.90
26182;DHT22;13927;51.534;11.866;2023-12-04T04:19:52;-1.90;99.90
26182;DHT22;13927;51.534;11.866;2023-12-04T04:22:19;-2.00;99.90
26182;DHT22;13927;51.534;11.866;2023-12-04T04:24:45;-1.90;99.90
26182;DHT22;13927;51.534;11.866;2023-12-04T04:27:11;-1.90;99.90
26182;DHT22;13927;51.534;11.866;2023-12-04T04:29:37;-1.80;99.90
26182;DHT22;13927;51.534;11.866;2023-12-04T04:32:03;-1.90;99.90
26182;DHT22;13927;51.534;11.866;2023-12-04T04:34:29;-1.80;99.90
26182;DHT22;13927;51.534;11.866;2023-12-04T04:36:55;-1.80;99.90
26182;DHT22;13927;51.534;11.866;2023-12-04T04:39:20;-1.80;99.90
26182;DHT22;13927;51.534;11.866;2023-12-04T04:41:46;-1.80;99.90
26182;DHT22;13927;51.534;11.866;2023-12-04T04:44:12;-1.70;99.90
26182;DHT22;13927;51.534;11.866;2023-12-04T04:46:37;-1.70;99.90
26182;DHT22;13927;51.534;11.866;2023-12-04T04:49:03;-1.70;99.90
26182;DHT22;13927;51.534;11.866;2023-12-04T04:51:32;-1.70;99.90
26182;DHT22;13927;51.534;11.866;2023-12-04T04:54:01;-1.70;99.90
26182;DHT22;13927;51.534;11.866;2023-12-04T04:56:27;-1.70;99.90
26182;DHT22;13927;51.534;11.866;2023-12-04T04:58:53;-1.80;99.90
26182;DHT22;13927;51.534;11.866;2023-12-04T05:01:19;-1.70;99.90
26182;DHT22;13927;51.534;11.866;2023-12-04T05:03:45;-1.70;99.90
26182;DHT22;13927;51.534;11.866;2023-12-04T05:06:10;-1.70;99.90
26182;DHT22;13927;51.534;11.866;2023-12-04T05:08:36;-1.70;99.90
26182;DHT22;13927;51.534;11.866;2023-12-04T05:11:02;-1.70;99.90
26182;DHT22;13927;51.534;11.866;2023-12-04T05:13:28;-1.70;99.90
26182;DHT22;13927;51.534;11.866;2023-12-04T05:15:53;-1.70;99.90
26182;DHT22;13927;51.534;11.866;2023-12-04T05:18:19;-1.70;99.90
26182;DHT22;13927;51.534;11.866;2023-12-04T05:20:45;-1.70;99.90
26182;DHT22;13927;51.534;11.866;2023-12-04T05:23:10;-1.70;99.90
26182;DHT22;13927;51.534;11.866;2023-12-04T05:25:36;-1.70;99.90
26182;DHT22;13927;51.534;11.866;2023-12-04T05:28:02;-1.80;99.90
26182;DHT22;13927;51.534;11.866;2023-12-04T05:30:28;-1.80;99.90
26182;DHT22;13927;51.534;11.866;2023-12-04T05:32:54;-1.80;99.90
26182;DHT22;13927;51.534;11.866;2023-12-04T05:35:20;-1.80;99.90
26182;DHT22;13927;51.534;11.866;2023-12-04T05:37:46;-1.80;99.90
26182;DHT22;13927;51.534;11.866;2023-12-04T05:40:12;-1.80;99.90
26182;DHT22;13927;51.534;11.866;2023-12-04T05:42:37;-1.80;99.90
26182;DHT22;13927;51.534;11.866;2023-12-04T05:45:03;-1.70;99.90
26182;DHT22;13927;51.534;11.866;2023-12-04T05:47:29;-1.70;99.90
26182;DHT22;13927;51.534;11.866;2023-12-04T05:49:55;-1.70;99.90
26182;DHT22;13927;51.534;11.866;2023-12-04T05:52:21;-1.70;99.90
26182;DHT22;13927;51.534;11.866;2023-12-04T05:54:47;-1.70;99.90
26182;DHT22;13927;51.534;11.866;2023-12-04T05:57:12;-1.70;99.90
26182;DHT22;13927;51.534;11.866;2023-12-04T05:59:38;-1.70;99.90
26182;DHT22;13927;51.534;11.866;2023-12-04T06:02:04;-1.70;99.90
26182;DHT22;13927;51.534;11.866;2023-12-04T06:04:29;-1.70;99.90
26182;DHT22;13927;51.534;11.866;2023-12-04T06:06:55;-1.70;99.90
26182;DHT22;13927;51.534;11.866;2023-12-04T06:09:21;-1.70;99.90
26182;DHT22;13927;51.534;11.866;2023-12-04T06:11:46;-1.80;99.90
26182;DHT22;13927;51.534;11.866;2023-12-04T06:14:12;-1.80;99.90
26182;DHT22;13927;51.534;11.866;2023-12-04T06:16:38;-1.80;99.90
26182;DHT22;13927;51.534;11.866;2023-12-04T06:19:03;-1.80;99.90
26182;DHT22;13927;51.534;11.866;2023-12-04T06:21:30;-1.80;99.90
26182;DHT22;13927;51.534;11.866;2023-12-04T06:23:56;-1.80;99.90
26182;DHT22;13927;51.534;11.866;2023-12-04T06:26:23;-1.90;99.90
26182;DHT22;13927;51.534;11.866;2023-12-04T06:28:49;-1.90;99.90
26182;DHT22;13927;51.534;11.866;2023-12-04T06:31:15;-1.90;99.90
26182;DHT22;13927;51.534;11.866;2023-12-04T06:33:42;-1.90;99.90
26182;DHT22;13927;51.534;11.866;2023-12-04T06:36:08;-2.00;99.90
26182;DHT22;13927;51.534;11.866;2023-12-04T06:38:37;-2.00;99.90
26182;DHT22;13927;51.534;11.866;2023-12-04T06:41:05;-2.00;99.90
26182;DHT22;13927;51.534;11.866;2023-12-04T06:43:31;-2.00;99.90
26182;DHT22;13927;51.534;11.866;2023-12-04T06:45:58;-2.00;99.90
26182;DHT22;13927;51.534;11.866;2023-12-04T06:48:25;-2.00;99.90
26182;DHT22;13927;51.534;11.866;2023-12-04T06:50:50;-2.00;99.90
26182;DHT22;13927;51.534;11.866;2023-12-04T06:53:16;-1.90;99.90
26182;DHT22;13927;51.534;11.866;2023-12-04T06:55:42;-1.90;99.90
26182;DHT22;13927;51.534;11.866;2023-12-04T06:58:08;-1.90;99.90
26182;DHT22;13927;51.534;11.866;2023-12-04T07:00:33;-1.90;99.90
26182;DHT22;13927;51.534;11.866;2023-12-04T07:02:59;-1.80;99.90
26182;DHT22;13927;51.534;11.866;2023-12-04T07:05:25;-1.80;99.90
26182;DHT22;13927;51.534;11.866;2023-12-04T07:07:50;-1.80;99.90
26182;DHT22;13927;51.534;11.866;2023-12-04T07:10:16;-1.80;99.90
26182;DHT22;13927;51.534;11.866;2023-12-04T07:12:42;-1.80;99.90
26182;DHT22;13927;51.534;11.866;2023-12-04T07:15:09;-1.80;99.90
26182;DHT22;13927;51.534;11.866;2023-12-04T07:17:37;-1.70;99.90
26182;DHT22;13927;51.534;11.866;2023-12-04T07:20:04;-1.80;99.90
26182;DHT22;13927;51.534;11.866;2023-12-04T07:22:33;-1.70;99.90
26182;DHT22;13927;51.534;11.866;2023-12-04T07:24:59;-1.70;99.90
26182;DHT22;13927;51.534;11.866;2023-12-04T07:27:25;-1.60;99.90
26182;DHT22;13927;51.534;11.866;2023-12-04T07:29:50;-1.60;99.90
26182;DHT22;13927;51.534;11.866;2023-12-04T07:32:16;-1.60;99.90
26182;DHT22;13927;51.534;11.866;2023-12-04T07:34:43;-1.60;99.90
26182;DHT22;13927;51.534;11.866;2023-12-04T07:37:09;-1.50;99.90
26182;DHT22;13927;51.534;11.866;2023-12-04T07:39:35;-1.50;99.90
26182;DHT22;13927;51.534;11.866;2023-12-04T07:42:01;-1.40;99.90
26182;DHT22;13927;51.534;11.866;2023-12-04T07:44:27;-1.30;99.90
26182;DHT22;13927;51.534;11.866;2023-12-04T07:46:53;-1.20;99.90
26182;DHT22;13927;51.534;11.866;2023-12-04T07:49:19;-1.20;99.90
26182;DHT22;13927;51.534;11.866;2023-12-04T07:51:44;-1.10;99.90
26182;DHT22;13927;51.534;11.866;2023-12-04T07:54:10;-1.00;99.90
26182;DHT22;13927;51.534;11.866;2023-12-04T07:56:36;-1.00;99.90
26182;DHT22;13927;51.534;11.866;2023-12-04T07:59:02;-0.90;99.90
26182;DHT22;13927;51.534;11.866;2023-12-04T08:01:28;-0.80;99.90
26182;DHT22;13927;51.534;11.866;2023-12-04T08:03:53;-0.70;99.90
26182;DHT22;13927;51.534;11.866;2023-12-04T08:06:19;-0.70;99.90
26182;DHT22;13927;51.534;11.866;2023-12-04T08:08:45;-0.60;99.90
26182;DHT22;13927;51.534;11.866;2023-12-04T08:11:11;-0.50;99.90
26182;DHT22;13927;51.534;11.866;2023-12-04T08:13:40;-0.50;99.90
26182;DHT22;13927;51.534;11.866;2023-12-04T08:16:13;-0.40;99.90
26182;DHT22;13927;51.534;11.866;2023-12-04T08:18:40;-0.40;99.90
26182;DHT22;13927;51.534;11.866;2023-12-04T08:21:06;-0.30;99.90
26182;DHT22;13927;51.534;11.866;2023-12-04T08:23:33;-0.30;99.90
26182;DHT22;13927;51.534;11.866;2023-12-04T08:25:59;-0.20;99.90
26182;DHT22;13927;51.534;11.866;2023-12-04T08:28:24;-0.20;99.90
26182;DHT22;13927;51.534;11.866;2023-12-04T08:30:50;-0.10;99.90
26182;DHT22;13927;51.534;11.866;2023-12-04T08:33:16;0.00;99.90
26182;DHT22;13927;51.534;11.866;2023-12-04T08:35:42;0.00;99.90
26182;DHT22;13927;51.534;11.866;2023-12-04T08:38:07;0.00;99.90
26182;DHT22;13927;51.534;11.866;2023-12-04T08:40:33;-0.10;99.90
26182;DHT22;13927;51.534;11.866;2023-12-04T08:42:59;-0.10;99.90
26182;DHT22;13927;51.534;11.866;2023-12-04T08:45:24;0.00;99.90
26182;DHT22;13927;51.534;11.866;2023-12-04T08:47:50;0.00;99.90
26182;DHT22;13927;51.534;11.866;2023-12-04T08:50:16;0.10;99.90
26182;DHT22;13927;51.534;11.866;2023-12-04T08:52:42;0.10;99.90
26182;DHT22;13927;51.534;11.866;2023-12-04T08:55:08;0.10;99.90
26182;DHT22;13927;51.534;11.866;2023-12-04T08:57:34;0.00;99.90
26182;DHT22;13927;51.534;11.866;2023-12-04T09:00:00;0.10;99.90
26182;DHT22;13927;51.534;11.866;2023-12-04T09:02:26;0.00;99.90
26182;DHT22;13927;51.534;11.866;2023-12-04T09:04:51;0.00;99.90
26182;DHT22;13927;51.534;11.866;2023-12-04T09:07:17;0.10;99.90
26182;DHT22;13927;51.534;11.866;2023-12-04T09:09:43;0.10;99.90
26182;DHT22;13927;51.534;11.866;2023-12-04T09:12:10;0.10;99.90
26182;DHT22;13927;51.534;11.866;2023-12-04T09:14:36;0.10;99.90
26182;DHT22;13927;51.534;11.866;2023-12-04T09:17:01;0.30;99.90
26182;DHT22;13927;51.534;11.866;2023-12-04T09:21:55;0.50;99.90
26182;DHT22;13927;51.534;11.866;2023-12-04T09:24:20;0.60;99.90
26182;DHT22;13927;51.534;11.866;2023-12-04T09:26:46;0.80;99.90
26182;DHT22;13927;51.534;11.866;2023-12-04T09:29:12;0.90;99.90
26182;DHT22;13927;51.534;11.866;2023-12-04T09:31:38;0.90;99.90
26182;DHT22;13927;51.534;11.866;2023-12-04T09:34:03;1.00;99.90
26182;DHT22;13927;51.534;11.866;2023-12-04T09:36:29;1.10;99.90
26182;DHT22;13927;51.534;11.866;2023-12-04T09:38:55;1.10;99.90
26182;DHT22;13927;51.534;11.866;2023-12-04T09:41:21;1.10;99.90
26182;DHT22;13927;51.534;11.866;2023-12-04T09:43:47;1.20;99.90
26182;DHT22;13927;51.534;11.866;2023-12-04T09:46:14;1.30;99.90
26182;DHT22;13927;51.534;11.866;2023-12-04T09:48:43;1.40;99.90
26182;DHT22;13927;51.534;11.866;2023-12-04T09:51:09;1.50;99.90
26182;DHT22;13927;51.534;11.866;2023-12-04T09:53:36;1.60;99.90
26182;DHT22;13927;51.534;11.866;2023-12-04T09:56:03;1.70;99.90
26182;DHT22;13927;51.534;11.866;2023-12-04T09:58:30;1.70;99.90
26182;DHT22;13927;51.534;11.866;2023-12-04T10:01:00;1.90;99.90
26182;DHT22;13927;51.534;11.866;2023-12-04T10:03:26;2.00;99.90
26182;DHT22;13927;51.534;11.866;2023-12-04T10:05:54;2.10;99.90
26182;DHT22;13927;51.534;11.866;2023-12-04T10:08:20;2.20;99.90
26182;DHT22;13927;51.534;11.866;2023-12-04T10:10:47;2.40;99.90
26182;DHT22;13927;51.534;11.866;2023-12-04T10:13:12;2.60;99.90
26182;DHT22;13927;51.534;11.866;2023-12-04T10:15:49;2.70;99.90
26182;DHT22;13927;51.534;11.866;2023-12-04T10:18:30;2.90;99.90
26182;DHT22;13927;51.534;11.866;2023-12-04T10:20:58;3.10;99.90
26182;DHT22;13927;51.534;11.866;2023-12-04T10:23:42;3.10;99.90
26182;DHT22;13927;51.534;11.866;2023-12-04T10:26:09;3.30;99.90
26182;DHT22;13927;51.534;11.866;2023-12-04T10:28:35;3.30;99.90
26182;DHT22;13927;51.534;11.866;2023-12-04T10:31:02;3.30;99.90
26182;DHT22;13927;51.534;11.866;2023-12-04T10:33:32;3.30;99.90
26182;DHT22;13927;51.534;11.866;2023-12-04T10:35:58;3.30;99.90
26182;DHT22;13927;51.534;11.866;2023-12-04T10:38:24;3.30;99.90
26182;DHT22;13927;51.534;11.866;2023-12-04T10:40:52;3.40;99.90
26182;DHT22;13927;51.534;11.866;2023-12-04T10:43:19;3.40;99.90
26182;DHT22;13927;51.534;11.866;2023-12-04T10:45:49;3.40;99.90
26182;DHT22;13927;51.534;11.866;2023-12-04T10:48:18;3.40;99.90
26182;DHT22;13927;51.534;11.866;2023-12-04T10:50:46;3.40;99.90
26182;DHT22;13927;51.534;11.866;2023-12-04T10:53:15;3.40;99.90
26182;DHT22;13927;51.534;11.866;2023-12-04T10:55:43;3.40;99.90
26182;DHT22;13927;51.534;11.866;2023-12-04T10:58:11;3.30;99.90
26182;DHT22;13927;51.534;11.866;2023-12-04T11:00:48;3.50;99.90
26182;DHT22;13927;51.534;11.866;2023-12-04T11:03:34;3.50;99.90
26182;DHT22;13927;51.534;11.866;2023-12-04T11:06:02;3.70;99.90
26182;DHT22;13927;51.534;11.866;2023-12-04T11:08:35;3.90;99.90
26182;DHT22;13927;51.534;11.866;2023-12-04T11:11:03;4.10;99.90
26182;DHT22;13927;51.534;11.866;2023-12-04T11:13:35;4.30;99.90
26182;DHT22;13927;51.534;11.866;2023-12-04T11:19:00;4.50;99.90
26182;DHT22;13927;51.534;11.866;2023-12-04T11:21:29;4.60;99.90
26182;DHT22;13927;51.534;11.866;2023-12-04T11:23:57;4.70;99.90
26182;DHT22;13927;51.534;11.866;2023-12-04T11:26:24;4.80;99.90
26182;DHT22;13927;51.534;11.866;2023-12-04T11:28:51;4.60;99.90
26182;DHT22;13927;51.534;11.866;2023-12-04T11:31:17;4.60;99.90
26182;DHT22;13927;51.534;11.866;2023-12-04T11:33:43;4.50;99.90
26182;DHT22;13927;51.534;11.866;2023-12-04T11:36:11;4.50;99.90
26182;DHT22;13927;51.534;11.866;2023-12-04T11:38:43;4.40;99.90
26182;DHT22;13927;51.534;11.866;2023-12-04T11:41:23;4.40;99.90
26182;DHT22;13927;51.534;11.866;2023-12-04T11:43:50;4.40;99.90
26182;DHT22;13927;51.534;11.866;2023-12-04T11:46:20;4.30;99.90
26182;DHT22;13927;51.534;11.866;2023-12-04T11:48:51;4.10;99.90
26182;DHT22;13927;51.534;11.866;2023-12-04T11:54:19;3.90;99.90
26182;DHT22;13927;51.534;11.866;2023-12-04T11:57:19;3.70;99.90
26182;DHT22;13927;51.534;11.866;2023-12-04T12:00:03;3.50;99.90
26182;DHT22;13927;51.534;11.866;2023-12-04T12:02:34;3.50;99.90
26182;DHT22;13927;51.534;11.866;2023-12-04T12:04:59;3.20;99.90
26182;DHT22;13927;51.534;11.866;2023-12-04T12:07:25;3.20;99.90
26182;DHT22;13927;51.534;11.866;2023-12-04T12:09:51;3.20;99.90
26182;DHT22;13927;51.534;11.866;2023-12-04T12:12:17;3.00;99.90
26182;DHT22;13927;51.534;11.866;2023-12-04T12:14:43;2.90;99.90
26182;DHT22;13927;51.534;11.866;2023-12-04T12:17:08;2.90;99.90
26182;DHT22;13927;51.534;11.866;2023-12-04T12:19:34;3.00;99.90
26182;DHT22;13927;51.534;11.866;2023-12-04T12:22:00;3.10;99.90
26182;DHT22;13927;51.534;11.866;2023-12-04T12:24:26;3.00;99.90
26182;DHT22;13927;51.534;11.866;2023-12-04T12:26:51;3.10;99.90
26182;DHT22;13927;51.534;11.866;2023-12-04T12:29:19;3.00;99.90
26182;DHT22;13927;51.534;11.866;2023-12-04T12:31:44;2.90;99.90
26182;DHT22;13927;51.534;11.866;2023-12-04T12:34:11;2.80;99.90
26182;DHT22;13927;51.534;11.866;2023-12-04T12:36:37;2.70;99.90
26182;DHT22;13927;51.534;11.866;2023-12-04T12:39:03;2.70;99.90
26182;DHT22;13927;51.534;11.866;2023-12-04T12:41:30;2.70;99.90
26182;DHT22;13927;51.534;11.866;2023-12-04T12:43:56;2.70;99.90
26182;DHT22;13927;51.534;11.866;2023-12-04T12:46:22;2.70;99.90
26182;DHT22;13927;51.534;11.866;2023-12-04T12:48:48;2.70;99.90
26182;DHT22;13927;51.534;11.866;2023-12-04T12:51:14;2.70;99.90
26182;DHT22;13927;51.534;11.866;2023-12-04T12:53:40;2.80;99.90
26182;DHT22;13927;51.534;11.866;2023-12-04T12:56:06;2.80;99.90
26182;DHT22;13927;51.534;11.866;2023-12-04T12:58:33;2.80;99.90
26182;DHT22;13927;51.534;11.866;2023-12-04T13:01:00;2.70;99.90
26182;DHT22;13927;51.534;11.866;2023-12-04T13:03:26;2.50;99.90
26182;DHT22;13927;51.534;11.866;2023-12-04T13:05:53;2.50;99.90
26182;DHT22;13927;51.534;11.866;2023-12-04T13:08:19;2.50;99.90
26182;DHT22;13927;51.534;11.866;2023-12-04T13:10:45;2.40;99.90
26182;DHT22;13927;51.534;11.866;2023-12-04T13:13:15;2.30;99.90
26182;DHT22;13927;51.534;11.866;2023-12-04T13:15:41;2.20;99.90
26182;DHT22;13927;51.534;11.866;2023-12-04T13:18:08;2.10;99.90
26182;DHT22;13927;51.534;11.866;2023-12-04T13:20:34;2.10;99.90
26182;DHT22;13927;51.534;11.866;2023-12-04T13:23:01;2.00;99.90
26182;DHT22;13927;51.534;11.866;2023-12-04T13:25:27;2.00;99.90
26182;DHT22;13927;51.534;11.866;2023-12-04T13:27:53;1.90;99.90
26182;DHT22;13927;51.534;11.866;2023-12-04T13:30:19;1.80;99.90
26182;DHT22;13927;51.534;11.866;2023-12-04T13:32:45;1.80;99.90
26182;DHT22;13927;51.534;11.866;2023-12-04T13:35:11;1.60;99.90
26182;DHT22;13927;51.534;11.866;2023-12-04T13:37:37;1.50;99.90
26182;DHT22;13927;51.534;11.866;2023-12-04T13:40:05;1.50;99.90
26182;DHT22;13927;51.534;11.866;2023-12-04T13:42:38;1.40;99.90
26182;DHT22;13927;51.534;11.866;2023-12-04T13:45:22;1.30;99.90
26182;DHT22;13927;51.534;11.866;2023-12-04T13:47:49;1.20;99.90
26182;DHT22;13927;51.534;11.866;2023-12-04T13:50:17;1.10;99.90
26182;DHT22;13927;51.534;11.866;2023-12-04T13:52:43;1.10;99.90
26182;DHT22;13927;51.534;11.866;2023-12-04T13:55:09;1.10;99.90
26182;DHT22;13927;51.534;11.866;2023-12-04T13:57:44;1.10;99.90
26182;DHT22;13927;51.534;11.866;2023-12-04T14:00:28;1.10;99.90
26182;DHT22;13927;51.534;11.866;2023-12-04T14:02:54;1.10;99.90
26182;DHT22;13927;51.534;11.866;2023-12-04T14:05:33;1.10;99.90
26182;DHT22;13927;51.534;11.866;2023-12-04T14:08:02;1.10;99.90
26182;DHT22;13927;51.534;11.866;2023-12-04T14:10:29;1.10;99.90
26182;DHT22;13927;51.534;11.866;2023-12-04T14:12:55;1.00;99.90
26182;DHT22;13927;51.534;11.866;2023-12-04T14:15:21;1.00;99.90
26182;DHT22;13927;51.534;11.866;2023-12-04T14:17:47;1.00;99.90
26182;DHT22;13927;51.534;11.866;2023-12-04T14:20:13;1.00;99.90
26182;DHT22;13927;51.534;11.866;2023-12-04T14:22:43;1.00;99.90
26182;DHT22;13927;51.534;11.866;2023-12-04T14:25:10;1.00;99.90
26182;DHT22;13927;51.534;11.866;2023-12-04T14:27:36;1.00;99.90
26182;DHT22;13927;51.534;11.866;2023-12-04T14:30:06;1.00;99.90
26182;DHT22;13927;51.534;11.866;2023-12-04T14:32:34;1.00;99.90
26182;DHT22;13927;51.534;11.866;2023-12-04T14:35:00;1.00;99.90
26182;DHT22;13927;51.534;11.866;2023-12-04T14:37:26;1.10;99.90
26182;DHT22;13927;51.534;11.866;2023-12-04T14:39:51;1.10;99.90
26182;DHT22;13927;51.534;11.866;2023-12-04T14:42:17;1.00;99.90
26182;DHT22;13927;51.534;11.866;2023-12-04T14:44:43;1.00;99.90
26182;DHT22;13927;51.534;11.866;2023-12-04T14:47:08;1.00;99.90
26182;DHT22;13927;51.534;11.866;2023-12-04T14:49:34;1.00;99.90
26182;DHT22;13927;51.534;11.866;2023-12-04T14:52:00;1.00;99.90
26182;DHT22;13927;51.534;11.866;2023-12-04T14:54:29;1.00;99.90
26182;DHT22;13927;51.534;11.866;2023-12-04T14:57:20;1.00;99.90
26182;DHT22;13927;51.534;11.866;2023-12-04T15:00:20;0.90;99.90
26182;DHT22;13927;51.534;11.866;2023-12-04T15:03:04;0.80;99.90
26182;DHT22;13927;51.534;11.866;2023-12-04T15:05:48;0.80;99.90
26182;DHT22;13927;51.534;11.866;2023-12-04T15:08:36;0.70;99.90
26182;DHT22;13927;51.534;11.866;2023-12-04T15:11:20;0.70;99.90
26182;DHT22;13927;51.534;11.866;2023-12-04T15:14:23;0.60;99.90
26182;DHT22;13927;51.534;11.866;2023-12-04T15:17:07;0.60;99.90
26182;DHT22;13927;51.534;11.866;2023-12-04T15:19:44;0.50;99.90
26182;DHT22;13927;51.534;11.866;2023-12-04T15:22:24;0.50;99.90
26182;DHT22;13927;51.534;11.866;2023-12-04T15:24:50;0.50;99.90
26182;DHT22;13927;51.534;11.866;2023-12-04T15:27:16;0.50;99.90
26182;DHT22;13927;51.534;11.866;2023-12-04T15:29:42;0.40;99.90
26182;DHT22;13927;51.534;11.866;2023-12-04T15:32:08;0.40;99.90